Captain Ed — WDF6338 — position and weather

sailwx.info

Track history (hours):
 
Tides and Currents Weather Stations Pressure Air Temp Water Temp Dewpoint Dewpoint Depression Visibility Wind Speed Wind Dir Waves Ship Positions

Captain Ed

Owner: Norfolk Dredging Company, Chesapeake, VA. More information available from US FCC via Universal Licensing System and Coast Guard Vessel Documentation Center.

Last reported at 2015-May-06 08:34 UTC. Time now 2015-May-06 09:27 UTC.
Position N 39°32' W 075°48'.

Length 22 m; draft 3 m.

Type: Tug. MMSI: 367473210.

Date/timePositionNaut miles runAvg speedWind from/ knotsBaromVisibWave heightAir tempDewpointWater temp
2015-May-06 08:34N 39°32' W 075°48'0 0.2
2015-May-06 07:33N 39°32' W 075°48'0 0.0
2015-May-06 06:33N 39°32' W 075°48'0 0.0
2015-May-06 05:33N 39°32' W 075°48'0 0.3
2015-May-06 04:33N 39°32' W 075°48'0 0.0
2015-May-06 03:33N 39°32' W 075°48'0 0.1
2015-May-06 02:34N 39°32' W 075°48'1 0.5
2015-May-06 01:34N 39°32' W 075°48'0 0.2
2015-May-06 00:33N 39°32' W 075°48'0 0.2
2015-May-05 23:33N 39°32' W 075°48'0 0.0
2015-May-05 22:34N 39°32' W 075°48'0 0.3
2015-May-05 21:34N 39°32' W 075°48'3 2.7
2015-May-05 20:33N 39°32' W 075°51'4 4.5
2015-May-05 19:33N 39°29' W 075°56'5 5.4
2015-May-05 18:34N 39°25' W 076°01'8 7.8
2015-May-05 17:33N 39°21' W 076°10'20 4.9
2015-May-05 13:24N 39°15' W 076°34'1 1.2
2015-May-05 12:28N 39°14' W 076°34'0 0.3
2015-May-05 11:32N 39°13' W 076°34'0 0.1
2015-May-05 10:25N 39°13' W 076°34'0 0.4
2015-May-05 09:33N 39°13' W 076°34'21 5.3
2015-May-05 05:33N 39°22' W 076°09'8 8.5
2015-May-05 04:33N 39°27' W 075°60'5 5.0
2015-May-05 03:33N 39°30' W 075°55'5 4.8
2015-May-05 02:33N 39°32' W 075°50'2 1.6
2015-May-05 01:33N 39°32' W 075°47'0 0.2
2015-May-05 00:33N 39°32' W 075°48'0 0.2
2015-May-04 23:33N 39°32' W 075°48'0 0.4
2015-May-04 22:33N 39°32' W 075°47'0 0.1
2015-May-04 21:33N 39°32' W 075°48'0 0.4
2015-May-04 20:33N 39°32' W 075°48'0 0.1
2015-May-04 19:33N 39°32' W 075°48'0 0.3
2015-May-04 18:33N 39°32' W 075°48'0 0.2
2015-May-04 17:33N 39°32' W 075°48'0 0.0
2015-May-04 16:33N 39°32' W 075°48'0 0.2
2015-May-04 15:33N 39°32' W 075°48'0 0.1
2015-May-04 14:33N 39°32' W 075°48'2 1.9
2015-May-04 13:33N 39°32' W 075°51'5 5.5
2015-May-04 12:33N 39°29' W 075°57'6 6.4
2015-May-04 11:33N 39°24' W 076°02'7 6.2
2015-May-04 10:28N 39°21' W 076°10'2 2.4
2015-May-04 09:33N 39°20' W 076°12'0 0.3
2015-May-04 08:33N 39°19' W 076°12'0 0.1
2015-May-04 07:33N 39°19' W 076°12'0 0.1
2015-May-04 06:33N 39°19' W 076°12'0 0.1
2015-May-04 05:33N 39°19' W 076°12'0 0.1
2015-May-04 04:33N 39°19' W 076°12'0 0.2
2015-May-04 03:33N 39°20' W 076°12'0 0.2
2015-May-04 02:33N 39°19' W 076°12'0 0.2
2015-May-04 01:33N 39°19' W 076°12'0 0.2
2015-May-04 00:33N 39°19' W 076°12'0 0.1
2015-May-03 23:33N 39°20' W 076°12'0 0.3
2015-May-03 22:31N 39°19' W 076°12'0 0.1
2015-May-03 21:32N 39°19' W 076°13'0 0.1
2015-May-03 20:26N 39°19' W 076°12'5 0.9
2015-May-03 14:33N 39°14' W 076°14'0 0.1
2015-May-03 13:34N 39°14' W 076°14'0 0.2
2015-May-03 12:33N 39°14' W 076°14'1 0.5
2015-May-03 11:30N 39°15' W 076°14'1 0.5
2015-May-03 10:24N 39°15' W 076°14'2 2.0
2015-May-03 09:33N 39°17' W 076°14'0 0.3
2015-May-03 08:34N 39°17' W 076°14'0 0.3
2015-May-03 07:32N 39°16' W 076°14'0 0.5
2015-May-03 06:33N 39°17' W 076°14'0 0.3
2015-May-03 05:33N 39°17' W 076°14'1 0.5
2015-May-03 04:33N 39°17' W 076°14'0 0.4
2015-May-03 03:33N 39°16' W 076°14'1 0.9
2015-May-03 02:33N 39°17' W 076°14'0 0.2
2015-May-03 01:33N 39°17' W 076°14'0 0.2
2015-May-03 00:32N 39°17' W 076°14'1 0.5
2015-May-02 23:04N 39°16' W 076°14'1 1.5
2015-May-02 22:32N 39°17' W 076°14'0 0.1
2015-May-02 21:08N 39°17' W 076°14'0 0.4
2015-May-02 20:31N 39°17' W 076°14'0 0.2
2015-May-02 19:04N 39°17' W 076°14'0 0.4
2015-May-02 18:22N 39°17' W 076°14'0 0.1
2015-May-02 15:27N 39°17' W 076°14'2 0.9
2015-May-02 13:33N 39°19' W 076°13'1 0.6
2015-May-02 12:29N 39°19' W 076°13'0 0.3
2015-May-02 11:26N 39°19' W 076°13'0 0.5
2015-May-02 10:29N 39°19' W 076°13'0 0.3
2015-May-02 09:29N 39°19' W 076°13'0 0.2
2015-May-02 08:33N 39°19' W 076°13'0 0.3
2015-May-02 07:33N 39°19' W 076°13'0 0.4
2015-May-02 06:33N 39°19' W 076°13'1 0.6
2015-May-02 05:32N 39°19' W 076°13'0 0.4
2015-May-02 04:34N 39°19' W 076°13'0 0.1
2015-May-02 03:28N 39°19' W 076°13'0 0.0
2015-May-02 02:33N 39°19' W 076°13'0 0.2
2015-May-02 01:32N 39°19' W 076°13'0 0.3
2015-May-02 00:34N 39°19' W 076°13'0 0.1
2015-May-01 23:26N 39°19' W 076°13'1 0.6
2015-May-01 22:33N 39°19' W 076°13'0 0.2
2015-May-01 21:33N 39°19' W 076°13'0 0.0
2015-May-01 20:10N 39°19' W 076°13'0 0.1
2015-May-01 18:29N 39°19' W 076°13'0 0.1
2015-May-01 17:14N 39°19' W 076°13'0 0.2
2015-May-01 16:28N 39°19' W 076°12'0 0.0
2015-May-01 00:33N 39°19' W 076°13'0 0.0
2015-Apr-30 23:26N 39°19' W 076°13'0 0.5
2015-Apr-30 22:33N 39°19' W 076°13'0 0.2
2015-Apr-30 21:32N 39°19' W 076°13'0 0.1
2015-Apr-30 19:26N 39°19' W 076°13'0 0.0
2015-Apr-30 18:31N 39°19' W 076°13'0 0.0
2015-Apr-30 17:17N 39°19' W 076°13'0 0.3
2015-Apr-30 16:33N 39°19' W 076°13'0 0.3
2015-Apr-30 15:31N 39°19' W 076°13'0 0.0
2015-Apr-30 14:33N 39°19' W 076°13'1 0.5
2015-Apr-30 13:33N 39°19' W 076°13'1 0.5
2015-Apr-30 12:33N 39°19' W 076°13'2 1.6
2015-Apr-30 11:22N 39°17' W 076°14'0 0.1
2015-Apr-30 10:33N 39°17' W 076°14'1 0.9
2015-Apr-30 09:33N 39°16' W 076°14'3 2.5
2015-Apr-30 08:33N 39°18' W 076°12'1 0.1
2015-Apr-29 21:25N 39°19' W 076°12'0 0.3
2015-Apr-29 20:32N 39°19' W 076°13'0 0.1
2015-Apr-29 19:04N 39°19' W 076°13'0 0.1
2015-Apr-29 18:19N 39°19' W 076°13'0 0.1
2015-Apr-29 17:25N 39°19' W 076°13'0 0.1
2015-Apr-29 16:33N 39°19' W 076°12'0 0.2
2015-Apr-29 15:25N 39°19' W 076°13'0 0.1
2015-Apr-29 13:25N 39°19' W 076°13'0 0.1
2015-Apr-29 12:33N 39°19' W 076°13'0 0.1
2015-Apr-29 11:33N 39°19' W 076°13'0 0.2
2015-Apr-29 10:33N 39°19' W 076°13'0 0.3
2015-Apr-29 09:33N 39°19' W 076°12'0 0.3
2015-Apr-29 08:33N 39°20' W 076°12'0 0.4
2015-Apr-29 07:33N 39°19' W 076°12'1 0.6
2015-Apr-29 06:33N 39°19' W 076°13'1 0.6
2015-Apr-29 05:33N 39°19' W 076°12'0 0.1
2015-Apr-29 04:33N 39°19' W 076°12'1 0.6
2015-Apr-29 03:33N 39°19' W 076°13'1 0.8
2015-Apr-29 02:33N 39°20' W 076°12'0 0.4
2015-Apr-29 01:33N 39°19' W 076°13'1 0.9
2015-Apr-29 00:31N 39°18' W 076°13'1 0.0
2015-Apr-27 20:27N 39°19' W 076°12'0 0.2
2015-Apr-27 19:33N 39°19' W 076°12'0 0.1
2015-Apr-27 18:32N 39°20' W 076°12'1 0.6
2015-Apr-27 17:31N 39°19' W 076°13'1 0.6
2015-Apr-27 16:31N 39°20' W 076°12'1 0.6
2015-Apr-27 15:28N 39°19' W 076°13'1 0.8
2015-Apr-27 14:33N 39°20' W 076°12'1 0.8
2015-Apr-27 13:31N 39°19' W 076°13'0 0.3
2015-Apr-27 12:32N 39°19' W 076°13'0 0.3
2015-Apr-27 11:33N 39°20' W 076°12'0 0.1
2015-Apr-27 10:33N 39°19' W 076°12'1 0.5
2015-Apr-27 09:33N 39°19' W 076°13'1 0.8
2015-Apr-27 08:33N 39°20' W 076°12'1 1.0
2015-Apr-27 07:33N 39°19' W 076°13'0 0.0
2015-Apr-27 06:31N 39°19' W 076°13'0 0.1
2015-Apr-27 05:33N 39°19' W 076°13'0 0.1
2015-Apr-27 04:33N 39°19' W 076°13'1 0.5
2015-Apr-27 03:33N 39°19' W 076°12'1 0.6
2015-Apr-27 02:33N 39°19' W 076°13'0 0.1
2015-Apr-27 01:33N 39°19' W 076°13'0 0.3
2015-Apr-27 00:33N 39°19' W 076°13'3 2.3
2015-Apr-26 23:18N 39°16' W 076°14'1 1.6
2015-Apr-26 22:31N 39°17' W 076°14'1 0.7
2015-Apr-26 21:18N 39°16' W 076°14'0 0.2
2015-Apr-26 20:25N 39°16' W 076°14'  
Track history (hours):
 
Tides and Currents Weather Stations Pressure Air Temp Water Temp Dewpoint Dewpoint Depression Visibility Wind Speed Wind Dir Waves Ship Positions

Captain Ed

Owner: Norfolk Dredging Company, Chesapeake, VA. More information available from US FCC via Universal Licensing System and Coast Guard Vessel Documentation Center.

Last reported at 2015-May-06 08:34 UTC. Time now 2015-May-06 09:27 UTC.
Position N 39°32' W 075°48'.

Length 22 m; draft 3 m.

Type: Tug. MMSI: 367473210.

Date/timePositionNaut miles runAvg speedWind from/ knotsBaromVisibWave heightAir tempDewpointWater temp
2015-May-06 08:34N 39°32' W 075°48'0 0.2
2015-May-06 07:33N 39°32' W 075°48'0 0.0
2015-May-06 06:33N 39°32' W 075°48'0 0.0
2015-May-06 05:33N 39°32' W 075°48'0 0.3
2015-May-06 04:33N 39°32' W 075°48'0 0.0
2015-May-06 03:33N 39°32' W 075°48'0 0.1
2015-May-06 02:34N 39°32' W 075°48'1 0.5
2015-May-06 01:34N 39°32' W 075°48'0 0.2
2015-May-06 00:33N 39°32' W 075°48'0 0.2
2015-May-05 23:33N 39°32' W 075°48'0 0.0
2015-May-05 22:34N 39°32' W 075°48'0 0.3
2015-May-05 21:34N 39°32' W 075°48'3 2.7
2015-May-05 20:33N 39°32' W 075°51'4 4.5
2015-May-05 19:33N 39°29' W 075°56'5 5.4
2015-May-05 18:34N 39°25' W 076°01'8 7.8
2015-May-05 17:33N 39°21' W 076°10'20 4.9
2015-May-05 13:24N 39°15' W 076°34'1 1.2
2015-May-05 12:28N 39°14' W 076°34'0 0.3
2015-May-05 11:32N 39°13' W 076°34'0 0.1
2015-May-05 10:25N 39°13' W 076°34'0 0.4
2015-May-05 09:33N 39°13' W 076°34'21 5.3
2015-May-05 05:33N 39°22' W 076°09'8 8.5
2015-May-05 04:33N 39°27' W 075°60'5 5.0
2015-May-05 03:33N 39°30' W 075°55'5 4.8
2015-May-05 02:33N 39°32' W 075°50'2 1.6
2015-May-05 01:33N 39°32' W 075°47'0 0.2
2015-May-05 00:33N 39°32' W 075°48'0 0.2
2015-May-04 23:33N 39°32' W 075°48'0 0.4
2015-May-04 22:33N 39°32' W 075°47'0 0.1
2015-May-04 21:33N 39°32' W 075°48'0 0.4
2015-May-04 20:33N 39°32' W 075°48'0 0.1
2015-May-04 19:33N 39°32' W 075°48'0 0.3
2015-May-04 18:33N 39°32' W 075°48'0 0.2
2015-May-04 17:33N 39°32' W 075°48'0 0.0
2015-May-04 16:33N 39°32' W 075°48'0 0.2
2015-May-04 15:33N 39°32' W 075°48'0 0.1
2015-May-04 14:33N 39°32' W 075°48'2 1.9
2015-May-04 13:33N 39°32' W 075°51'5 5.5
2015-May-04 12:33N 39°29' W 075°57'6 6.4
2015-May-04 11:33N 39°24' W 076°02'7 6.2
2015-May-04 10:28N 39°21' W 076°10'2 2.4
2015-May-04 09:33N 39°20' W 076°12'0 0.3
2015-May-04 08:33N 39°19' W 076°12'0 0.1
2015-May-04 07:33N 39°19' W 076°12'0 0.1
2015-May-04 06:33N 39°19' W 076°12'0 0.1
2015-May-04 05:33N 39°19' W 076°12'0 0.1
2015-May-04 04:33N 39°19' W 076°12'0 0.2
2015-May-04 03:33N 39°20' W 076°12'0 0.2
2015-May-04 02:33N 39°19' W 076°12'0 0.2
2015-May-04 01:33N 39°19' W 076°12'0 0.2
2015-May-04 00:33N 39°19' W 076°12'0 0.1
2015-May-03 23:33N 39°20' W 076°12'0 0.3
2015-May-03 22:31N 39°19' W 076°12'0 0.1
2015-May-03 21:32N 39°19' W 076°13'0 0.1
2015-May-03 20:26N 39°19' W 076°12'5 0.9
2015-May-03 14:33N 39°14' W 076°14'0 0.1
2015-May-03 13:34N 39°14' W 076°14'0 0.2
2015-May-03 12:33N 39°14' W 076°14'1 0.5
2015-May-03 11:30N 39°15' W 076°14'1 0.5
2015-May-03 10:24N 39°15' W 076°14'2 2.0
2015-May-03 09:33N 39°17' W 076°14'0 0.3
2015-May-03 08:34N 39°17' W 076°14'0 0.3
2015-May-03 07:32N 39°16' W 076°14'0 0.5
2015-May-03 06:33N 39°17' W 076°14'0 0.3
2015-May-03 05:33N 39°17' W 076°14'1 0.5
2015-May-03 04:33N 39°17' W 076°14'0 0.4
2015-May-03 03:33N 39°16' W 076°14'1 0.9
2015-May-03 02:33N 39°17' W 076°14'0 0.2
2015-May-03 01:33N 39°17' W 076°14'0 0.2
2015-May-03 00:32N 39°17' W 076°14'1 0.5
2015-May-02 23:04N 39°16' W 076°14'1 1.5
2015-May-02 22:32N 39°17' W 076°14'0 0.1
2015-May-02 21:08N 39°17' W 076°14'0 0.4
2015-May-02 20:31N 39°17' W 076°14'0 0.2
2015-May-02 19:04N 39°17' W 076°14'0 0.4
2015-May-02 18:22N 39°17' W 076°14'0 0.1
2015-May-02 15:27N 39°17' W 076°14'2 0.9
2015-May-02 13:33N 39°19' W 076°13'1 0.6
2015-May-02 12:29N 39°19' W 076°13'0 0.3
2015-May-02 11:26N 39°19' W 076°13'0 0.5
2015-May-02 10:29N 39°19' W 076°13'0 0.3
2015-May-02 09:29N 39°19' W 076°13'0 0.2
2015-May-02 08:33N 39°19' W 076°13'0 0.3
2015-May-02 07:33N 39°19' W 076°13'0 0.4
2015-May-02 06:33N 39°19' W 076°13'1 0.6
2015-May-02 05:32N 39°19' W 076°13'0 0.4
2015-May-02 04:34N 39°19' W 076°13'0 0.1
2015-May-02 03:28N 39°19' W 076°13'0 0.0
2015-May-02 02:33N 39°19' W 076°13'0 0.2
2015-May-02 01:32N 39°19' W 076°13'0 0.3
2015-May-02 00:34N 39°19' W 076°13'0 0.1
2015-May-01 23:26N 39°19' W 076°13'1 0.6
2015-May-01 22:33N 39°19' W 076°13'0 0.2
2015-May-01 21:33N 39°19' W 076°13'0 0.0
2015-May-01 20:10N 39°19' W 076°13'0 0.1
2015-May-01 18:29N 39°19' W 076°13'0 0.1
2015-May-01 17:14N 39°19' W 076°13'0 0.2
2015-May-01 16:28N 39°19' W 076°12'0 0.0
2015-May-01 00:33N 39°19' W 076°13'0 0.0
2015-Apr-30 23:26N 39°19' W 076°13'0 0.5
2015-Apr-30 22:33N 39°19' W 076°13'0 0.2
2015-Apr-30 21:32N 39°19' W 076°13'0 0.1
2015-Apr-30 19:26N 39°19' W 076°13'0 0.0
2015-Apr-30 18:31N 39°19' W 076°13'0 0.0
2015-Apr-30 17:17N 39°19' W 076°13'0 0.3
2015-Apr-30 16:33N 39°19' W 076°13'0 0.3
2015-Apr-30 15:31N 39°19' W 076°13'0 0.0
2015-Apr-30 14:33N 39°19' W 076°13'1 0.5
2015-Apr-30 13:33N 39°19' W 076°13'1 0.5
2015-Apr-30 12:33N 39°19' W 076°13'2 1.6
2015-Apr-30 11:22N 39°17' W 076°14'0 0.1
2015-Apr-30 10:33N 39°17' W 076°14'1 0.9
2015-Apr-30 09:33N 39°16' W 076°14'3 2.5
2015-Apr-30 08:33N 39°18' W 076°12'1 0.1
2015-Apr-29 21:25N 39°19' W 076°12'0 0.3
2015-Apr-29 20:32N 39°19' W 076°13'0 0.1
2015-Apr-29 19:04N 39°19' W 076°13'0 0.1
2015-Apr-29 18:19N 39°19' W 076°13'0 0.1
2015-Apr-29 17:25N 39°19' W 076°13'0 0.1
2015-Apr-29 16:33N 39°19' W 076°12'0 0.2
2015-Apr-29 15:25N 39°19' W 076°13'0 0.1
2015-Apr-29 13:25N 39°19' W 076°13'0 0.1
2015-Apr-29 12:33N 39°19' W 076°13'0 0.1
2015-Apr-29 11:33N 39°19' W 076°13'0 0.2
2015-Apr-29 10:33N 39°19' W 076°13'0 0.3
2015-Apr-29 09:33N 39°19' W 076°12'0 0.3
2015-Apr-29 08:33N 39°20' W 076°12'0 0.4
2015-Apr-29 07:33N 39°19' W 076°12'1 0.6
2015-Apr-29 06:33N 39°19' W 076°13'1 0.6
2015-Apr-29 05:33N 39°19' W 076°12'0 0.1
2015-Apr-29 04:33N 39°19' W 076°12'1 0.6
2015-Apr-29 03:33N 39°19' W 076°13'1 0.8
2015-Apr-29 02:33N 39°20' W 076°12'0 0.4
2015-Apr-29 01:33N 39°19' W 076°13'1 0.9
2015-Apr-29 00:31N 39°18' W 076°13'1 0.0
2015-Apr-27 20:27N 39°19' W 076°12'0 0.2
2015-Apr-27 19:33N 39°19' W 076°12'0 0.1
2015-Apr-27 18:32N 39°20' W 076°12'1 0.6
2015-Apr-27 17:31N 39°19' W 076°13'1 0.6
2015-Apr-27 16:31N 39°20' W 076°12'1 0.6
2015-Apr-27 15:28N 39°19' W 076°13'1 0.8
2015-Apr-27 14:33N 39°20' W 076°12'1 0.8
2015-Apr-27 13:31N 39°19' W 076°13'0 0.3
2015-Apr-27 12:32N 39°19' W 076°13'0 0.3
2015-Apr-27 11:33N 39°20' W 076°12'0 0.1
2015-Apr-27 10:33N 39°19' W 076°12'1 0.5
2015-Apr-27 09:33N 39°19' W 076°13'1 0.8
2015-Apr-27 08:33N 39°20' W 076°12'1 1.0
2015-Apr-27 07:33N 39°19' W 076°13'0 0.0
2015-Apr-27 06:31N 39°19' W 076°13'0 0.1
2015-Apr-27 05:33N 39°19' W 076°13'0 0.1
2015-Apr-27 04:33N 39°19' W 076°13'1 0.5
2015-Apr-27 03:33N 39°19' W 076°12'1 0.6
2015-Apr-27 02:33N 39°19' W 076°13'0 0.1
2015-Apr-27 01:33N 39°19' W 076°13'0 0.3
2015-Apr-27 00:33N 39°19' W 076°13'3 2.3
2015-Apr-26 23:18N 39°16' W 076°14'1 1.6
2015-Apr-26 22:31N 39°17' W 076°14'1 0.7
2015-Apr-26 21:18N 39°16' W 076°14'0 0.2
2015-Apr-26 20:25N 39°16' W 076°14'  

Dump ship's entire track history